Time;durP1;ratioP1;P1;durP2;ratioP2;P2;SDS_P1;SDS_P2;PMS_P1;PMS_P2;Temp;Humidity;BMP_temperature;BMP_pressure;BME280_temperature;BME280_humidity;BME280_pressure;Samples;Min_cycle;Max_cycle;Signal;HPM_P1;HPM_P2
2023/03/03 00:01:27;;;;;;;649.72;95.60;;;5.90;99.90;;;;;;5096545;28;20036;-78
2023/03/03 00:03:53;;;;;;;643.00;94.40;;;5.90;99.90;;;;;;5095622;28;20024;-78
2023/03/03 00:06:20;;;;;;;529.88;88.88;;;5.90;99.90;;;;;;5094563;28;20417;-75
2023/03/03 00:08:46;;;;;;;571.17;98.28;;;5.90;99.90;;;;;;5075123;28;20025;-79
2023/03/03 00:11:12;;;;;;;489.60;76.88;;;6.00;99.90;;;;;;5076388;28;20107;-77
2023/03/03 00:13:58;;;;;;;494.05;76.45;;;5.90;99.90;;;;;;5075740;28;20024;-76
2023/03/03 00:16:24;;;;;;;489.00;80.47;;;6.00;99.90;;;;;;5075890;28;20044;-78
2023/03/03 00:18:50;;;;;;;477.58;73.45;;;5.90;99.90;;;;;;5074613;28;20078;-76
2023/03/03 00:21:27;;;;;;;455.10;74.15;;;5.90;99.90;;;;;;5075895;28;20029;-77
2023/03/03 00:24:12;;;;;;;532.65;69.20;;;6.00;99.90;;;;;;5074816;28;20048;-78
2023/03/03 00:26:39;;;;;;;490.02;72.13;;;5.90;99.90;;;;;;5074668;28;20115;-76
2023/03/03 00:29:26;;;;;;;480.30;67.90;;;5.90;99.90;;;;;;5076063;28;20556;-76
2023/03/03 00:31:53;;;;;;;547.70;79.63;;;6.00;99.90;;;;;;5075708;28;20036;-77
2023/03/03 00:34:25;;;;;;;434.33;63.08;;;6.00;99.90;;;;;;5075602;28;20099;-78
2023/03/03 00:36:55;;;;;;;477.45;66.50;;;6.00;99.90;;;;;;5075643;28;20436;-81
2023/03/03 00:39:38;;;;;;;542.10;74.65;;;5.90;99.90;;;;;;5076049;28;20035;-77
2023/03/03 00:42:17;;;;;;;560.00;77.22;;;5.90;99.90;;;;;;5075494;28;20031;-77
2023/03/03 00:44:46;;;;;;;405.42;64.72;;;6.00;99.90;;;;;;5075664;28;20516;-76
2023/03/03 00:47:26;;;;;;;581.35;70.75;;;6.00;99.90;;;;;;5075620;28;20028;-76
2023/03/03 00:50:20;;;;;;;396.17;62.03;;;5.90;99.90;;;;;;5075358;28;20020;-77
2023/03/03 00:53:03;;;;;;;445.55;71.55;;;6.00;99.90;;;;;;5074071;28;20020;-77
2023/03/03 00:55:30;;;;;;;495.30;69.95;;;6.00;99.90;;;;;;5075121;28;20044;-77
2023/03/03 00:57:56;;;;;;;509.92;61.60;;;6.00;99.90;;;;;;5075426;28;20028;-77
2023/03/03 01:00:22;;;;;;;600.20;66.18;;;6.00;99.90;;;;;;5077269;28;20437;-78
2023/03/03 01:02:47;;;;;;;443.40;60.45;;;6.00;99.90;;;;;;5080476;28;20523;-76
2023/03/03 01:05:16;;;;;;;433.83;61.25;;;6.00;99.90;;;;;;5082294;28;20166;-79
2023/03/03 01:07:42;;;;;;;421.13;63.75;;;5.90;99.90;;;;;;5085586;28;20082;-77
2023/03/03 01:10:09;;;;;;;549.13;70.20;;;5.90;99.90;;;;;;5086911;28;20463;-77
2023/03/03 01:12:35;;;;;;;457.25;63.85;;;5.90;99.90;;;;;;5085757;28;20024;-76
2023/03/03 01:15:01;;;;;;;400.50;62.47;;;5.90;99.90;;;;;;5086529;28;20103;-79
2023/03/03 01:17:27;;;;;;;427.20;61.85;;;5.80;99.90;;;;;;5081447;28;20493;-79
2023/03/03 01:19:53;;;;;;;424.65;65.15;;;5.90;99.90;;;;;;5084171;28;20024;-77
2023/03/03 01:22:19;;;;;;;444.80;61.47;;;5.80;99.90;;;;;;5082987;28;20395;-78
2023/03/03 01:24:44;;;;;;;505.90;64.05;;;5.80;99.90;;;;;;5084420;28;20035;-78
2023/03/03 01:27:10;;;;;;;417.75;53.58;;;5.80;99.90;;;;;;5081505;28;20028;-77
2023/03/03 01:29:36;;;;;;;339.60;52.20;;;5.80;99.90;;;;;;5081328;28;20521;-75
2023/03/03 01:32:01;;;;;;;545.25;66.75;;;5.80;99.90;;;;;;5082736;28;20024;-77
2023/03/03 01:34:27;;;;;;;454.80;66.22;;;5.90;99.90;;;;;;5086734;28;20132;-77
2023/03/03 01:36:53;;;;;;;314.33;54.75;;;5.90;99.90;;;;;;5081638;28;20034;-75
2023/03/03 01:39:18;;;;;;;444.75;59.08;;;5.80;99.90;;;;;;5081157;28;20025;-76
2023/03/03 01:41:44;;;;;;;302.38;50.83;;;5.80;99.90;;;;;;5082300;28;20078;-77
2023/03/03 01:44:14;;;;;;;406.73;54.15;;;5.80;99.90;;;;;;5086187;28;20455;-77
2023/03/03 01:47:15;;;;;;;372.13;52.88;;;5.80;99.90;;;;;;5083297;28;20024;-76
2023/03/03 01:50:05;;;;;;;390.25;53.72;;;5.80;99.90;;;;;;5083596;28;20033;-77
2023/03/03 01:52:39;;;;;;;287.95;47.88;;;5.80;99.90;;;;;;5079450;28;20055;-76
2023/03/03 01:55:14;;;;;;;379.60;57.58;;;5.90;99.90;;;;;;5082432;28;20036;-77
2023/03/03 01:57:45;;;;;;;429.52;57.67;;;5.80;99.90;;;;;;5084640;28;20024;-77
2023/03/03 02:00:12;;;;;;;497.17;65.33;;;5.90;99.90;;;;;;5084498;28;20475;-76
2023/03/03 02:02:39;;;;;;;393.88;57.30;;;5.80;99.90;;;;;;5065081;28;20037;-78
2023/03/03 02:05:05;;;;;;;428.23;60.63;;;5.80;99.90;;;;;;5081641;28;20437;-77
2023/03/03 02:07:31;;;;;;;448.15;64.55;;;5.80;99.90;;;;;;5084753;28;20085;-75
2023/03/03 02:10:03;;;;;;;432.38;57.72;;;5.80;99.90;;;;;;5082985;28;20020;-77
2023/03/03 02:12:54;;;;;;;401.42;60.13;;;5.80;99.90;;;;;;5081910;28;20391;-75
2023/03/03 02:15:22;;;;;;;379.30;53.50;;;5.80;99.90;;;;;;5079376;28;20029;-77
2023/03/03 02:18:00;;;;;;;403.35;61.03;;;5.80;99.90;;;;;;5085324;28;20043;-78
2023/03/03 02:20:49;;;;;;;378.67;58.75;;;5.80;99.90;;;;;;5080142;28;20032;-76
2023/03/03 02:23:20;;;;;;;422.13;62.15;;;5.80;99.90;;;;;;5084227;28;20029;-76
2023/03/03 02:26:11;;;;;;;527.42;69.65;;;5.70;99.90;;;;;;5080434;28;20033;-77
2023/03/03 02:28:39;;;;;;;366.90;60.37;;;5.70;99.90;;;;;;5072420;28;20089;-78
2023/03/03 02:31:12;;;;;;;340.80;63.38;;;5.70;99.90;;;;;;5082547;28;20040;-79
2023/03/03 02:33:39;;;;;;;415.42;64.50;;;5.70;99.90;;;;;;5083749;28;20111;-77
2023/03/03 02:36:05;;;;;;;425.27;63.00;;;5.70;99.90;;;;;;5085783;28;20032;-75
2023/03/03 02:38:41;;;;;;;425.00;63.28;;;5.70;99.90;;;;;;5079331;28;20035;-75
2023/03/03 02:41:16;;;;;;;423.33;60.67;;;5.70;99.90;;;;;;5079039;28;20027;-77
2023/03/03 02:43:58;;;;;;;362.02;54.92;;;5.70;99.90;;;;;;5084312;28;20024;-77
2023/03/03 02:46:24;;;;;;;313.95;55.72;;;5.80;99.90;;;;;;5080259;28;20043;-77
2023/03/03 02:48:50;;;;;;;392.95;58.03;;;5.70;99.90;;;;;;5080435;28;20474;-76
2023/03/03 02:51:16;;;;;;;325.02;53.88;;;5.70;99.90;;;;;;5083164;28;20124;-75
2023/03/03 02:53:41;;;;;;;410.45;66.20;;;5.80;99.90;;;;;;5082280;28;20028;-75
2023/03/03 02:56:08;;;;;;;304.95;56.33;;;5.80;99.90;;;;;;5082288;28;20553;-76
2023/03/03 02:58:35;;;;;;;306.08;55.20;;;5.80;99.90;;;;;;5082783;28;20484;-76
2023/03/03 03:01:01;;;;;;;341.92;54.50;;;5.70;99.90;;;;;;5080559;28;20024;-76
2023/03/03 03:03:27;;;;;;;292.77;49.38;;;5.70;99.90;;;;;;5079982;28;20097;-76
2023/03/03 03:05:53;;;;;;;259.27;44.17;;;5.70;99.90;;;;;;5084008;28;20430;-75
2023/03/03 03:08:19;;;;;;;264.75;49.65;;;5.70;99.90;;;;;;5084266;28;20036;-75
2023/03/03 03:10:44;;;;;;;246.13;50.53;;;5.70;99.90;;;;;;5082874;28;20032;-76
2023/03/03 03:13:10;;;;;;;257.50;50.28;;;5.60;99.90;;;;;;5083912;28;20032;-76
2023/03/03 03:15:37;;;;;;;285.40;47.20;;;5.60;99.90;;;;;;5082224;28;20021;-77
2023/03/03 03:18:03;;;;;;;260.33;44.53;;;5.60;99.90;;;;;;5073443;28;20029;-76
2023/03/03 03:20:29;;;;;;;254.30;45.40;;;5.60;99.90;;;;;;5090494;28;20039;-77
2023/03/03 03:22:54;;;;;;;270.38;47.65;;;5.60;99.90;;;;;;5093294;28;20028;-75
2023/03/03 03:25:20;;;;;;;301.42;48.05;;;5.60;99.90;;;;;;5092099;28;20127;-76
2023/03/03 03:27:46;;;;;;;256.83;47.63;;;5.60;99.90;;;;;;5093505;28;20028;-76
2023/03/03 03:30:12;;;;;;;249.18;47.35;;;5.60;99.90;;;;;;5092847;28;20052;-77
2023/03/03 03:32:38;;;;;;;228.98;44.55;;;5.60;99.90;;;;;;5074790;28;20084;-77
2023/03/03 03:35:04;;;;;;;236.82;43.00;;;5.60;99.90;;;;;;5072902;28;20074;-77
2023/03/03 03:37:30;;;;;;;227.85;44.08;;;5.60;99.90;;;;;;5072253;28;20024;-76
2023/03/03 03:39:55;;;;;;;312.83;52.40;;;5.60;99.90;;;;;;5071878;28;20456;-77
2023/03/03 03:42:21;;;;;;;399.70;61.85;;;5.60;99.90;;;;;;5072862;28;20029;-78
2023/03/03 03:44:47;;;;;;;380.30;58.53;;;5.60;99.90;;;;;;5080875;28;20085;-78
2023/03/03 03:47:12;;;;;;;422.63;63.05;;;5.60;99.90;;;;;;5078517;28;20032;-77
2023/03/03 03:49:38;;;;;;;407.00;62.75;;;5.50;99.90;;;;;;5082947;28;20387;-75
2023/03/03 03:52:04;;;;;;;490.13;63.90;;;5.50;99.90;;;;;;5080824;28;20075;-76
2023/03/03 03:54:29;;;;;;;379.23;62.47;;;5.50;99.90;;;;;;5085617;28;21618;-77
2023/03/03 03:56:55;;;;;;;365.30;59.67;;;5.50;99.90;;;;;;5086155;28;20068;-75
2023/03/03 03:59:21;;;;;;;422.20;63.60;;;5.50;99.90;;;;;;5083185;28;20036;-75
2023/03/03 04:01:48;;;;;;;405.52;62.75;;;5.50;99.90;;;;;;5083168;28;20044;-76
2023/03/03 04:04:14;;;;;;;397.25;64.55;;;5.50;99.90;;;;;;5087690;28;20032;-76
2023/03/03 04:06:40;;;;;;;465.33;66.15;;;5.50;99.90;;;;;;5079267;28;20464;-77
2023/03/03 04:09:06;;;;;;;457.83;64.18;;;5.50;99.90;;;;;;5096911;28;20032;-77
2023/03/03 04:11:31;;;;;;;398.58;66.28;;;5.50;99.90;;;;;;5084923;28;20544;-79
2023/03/03 04:13:57;;;;;;;366.05;62.45;;;5.50;99.90;;;;;;5079205;28;20020;-78
2023/03/03 04:16:23;;;;;;;357.83;61.60;;;5.50;99.90;;;;;;5092018;28;20380;-76
2023/03/03 04:18:49;;;;;;;312.27;62.47;;;5.60;99.90;;;;;;5075929;28;20075;-77
2023/03/03 04:21:15;;;;;;;412.83;77.40;;;5.60;99.90;;;;;;5077006;28;20468;-77
2023/03/03 04:23:41;;;;;;;410.35;68.18;;;5.50;99.90;;;;;;5089609;28;20027;-77
2023/03/03 04:26:07;;;;;;;364.20;63.47;;;5.50;99.90;;;;;;5082425;28;20039;-78
2023/03/03 04:28:33;;;;;;;334.25;58.22;;;5.60;99.90;;;;;;5088434;28;20028;-77
2023/03/03 04:30:59;;;;;;;233.90;47.45;;;5.60;99.90;;;;;;5082220;28;20078;-76
2023/03/03 04:33:25;;;;;;;213.98;43.40;;;5.50;99.90;;;;;;5084670;28;20082;-77
2023/03/03 04:35:51;;;;;;;199.70;40.50;;;5.50;99.90;;;;;;5088195;28;20036;-76
2023/03/03 04:38:17;;;;;;;215.63;40.45;;;5.50;99.90;;;;;;5074291;28;20380;-75
2023/03/03 04:40:42;;;;;;;187.73;39.90;;;5.50;99.90;;;;;;5078370;28;20024;-76
2023/03/03 04:43:09;;;;;;;187.45;37.40;;;5.50;99.90;;;;;;5081266;28;20453;-78
2023/03/03 04:45:35;;;;;;;172.45;38.03;;;5.50;99.90;;;;;;5087822;28;20043;-78
2023/03/03 04:48:01;;;;;;;168.00;37.33;;;5.50;99.90;;;;;;5082486;28;20035;-75
2023/03/03 04:50:27;;;;;;;169.07;37.08;;;5.50;99.90;;;;;;5089115;28;20028;-75
2023/03/03 04:52:52;;;;;;;154.75;34.08;;;5.50;99.90;;;;;;5083481;28;20365;-78
2023/03/03 04:55:18;;;;;;;169.30;36.17;;;5.50;99.90;;;;;;5082514;28;20176;-76
2023/03/03 04:57:44;;;;;;;178.20;37.40;;;5.40;99.90;;;;;;5082822;28;20024;-76
2023/03/03 05:00:12;;;;;;;153.40;36.63;;;5.40;99.90;;;;;;5084695;28;20095;-77
2023/03/03 05:02:41;;;;;;;179.15;40.50;;;5.50;99.90;;;;;;5088644;28;20032;-77
2023/03/03 05:05:09;;;;;;;163.43;39.33;;;5.40;99.90;;;;;;5086143;28;20031;-77
2023/03/03 05:07:35;;;;;;;157.90;40.28;;;5.50;99.90;;;;;;5086660;28;20468;-77
2023/03/03 05:10:01;;;;;;;164.15;39.47;;;5.40;99.90;;;;;;5084986;28;20024;-76
2023/03/03 05:12:27;;;;;;;161.20;39.88;;;5.40;99.90;;;;;;5079753;28;20469;-76
2023/03/03 05:14:53;;;;;;;170.10;39.72;;;5.50;99.90;;;;;;5083424;28;20103;-75
2023/03/03 05:17:18;;;;;;;147.43;38.92;;;5.40;99.90;;;;;;5083519;28;20115;-77
2023/03/03 05:19:44;;;;;;;184.25;49.90;;;5.50;99.90;;;;;;5086670;28;20028;-77
2023/03/03 05:22:10;;;;;;;172.85;50.22;;;5.40;99.90;;;;;;5078302;28;20066;-76
2023/03/03 05:24:35;;;;;;;180.38;48.70;;;5.50;99.90;;;;;;5074961;28;20079;-77
2023/03/03 05:27:02;;;;;;;162.13;48.47;;;5.50;99.90;;;;;;5074487;28;20024;-79
2023/03/03 05:29:30;;;;;;;149.48;39.08;;;5.50;99.90;;;;;;5074519;28;20380;-75
2023/03/03 05:31:56;;;;;;;146.02;43.03;;;5.50;99.90;;;;;;5073526;28;20025;-79
2023/03/03 05:34:22;;;;;;;140.85;34.92;;;5.40;99.90;;;;;;5073086;28;20399;-77
2023/03/03 05:36:48;;;;;;;123.35;34.35;;;5.40;99.90;;;;;;5074496;28;20029;-76
2023/03/03 05:39:14;;;;;;;133.13;34.53;;;5.40;99.90;;;;;;5073375;28;20028;-76
2023/03/03 05:41:40;;;;;;;139.10;37.30;;;5.40;99.90;;;;;;5074418;28;20433;-77
2023/03/03 05:44:05;;;;;;;141.25;40.50;;;5.40;99.90;;;;;;5073325;28;20025;-77
2023/03/03 05:46:31;;;;;;;148.07;39.50;;;5.40;99.90;;;;;;5074237;28;20055;-77
2023/03/03 05:48:57;;;;;;;119.55;33.90;;;5.50;99.90;;;;;;5073893;28;20040;-75
2023/03/03 05:51:22;;;;;;;147.35;38.95;;;5.40;99.90;;;;;;5074123;28;20096;-77
2023/03/03 05:53:48;;;;;;;151.65;43.75;;;5.40;99.90;;;;;;5074407;28;20372;-75
2023/03/03 05:56:14;;;;;;;144.93;44.20;;;5.40;99.90;;;;;;5074003;28;20084;-75
2023/03/03 05:58:39;;;;;;;157.02;46.85;;;5.40;99.90;;;;;;5074296;28;20024;-78
2023/03/03 06:01:05;;;;;;;186.52;49.55;;;5.40;99.90;;;;;;5072957;28;20398;-75
2023/03/03 06:03:31;;;;;;;183.57;53.70;;;5.50;99.90;;;;;;5072572;28;20031;-76
2023/03/03 06:05:57;;;;;;;199.55;62.85;;;5.50;99.90;;;;;;5074121;28;20024;-78
2023/03/03 06:08:23;;;;;;;161.80;50.67;;;5.50;99.90;;;;;;5074439;28;20032;-77
2023/03/03 06:10:48;;;;;;;191.88;58.10;;;5.50;99.90;;;;;;5073803;28;20072;-76
2023/03/03 06:13:14;;;;;;;174.93;56.00;;;5.50;99.90;;;;;;5072760;28;20078;-77
2023/03/03 06:15:39;;;;;;;188.38;62.35;;;5.50;99.90;;;;;;5073644;28;20078;-77
2023/03/03 06:18:05;;;;;;;218.18;73.95;;;5.50;99.90;;;;;;5072425;28;20387;-77
2023/03/03 06:20:32;;;;;;;215.02;77.40;;;5.60;99.90;;;;;;5073994;28;20028;-76
2023/03/03 06:22:57;;;;;;;247.95;98.38;;;5.50;99.90;;;;;;5073691;28;20043;-77
2023/03/03 06:25:23;;;;;;;265.33;95.38;;;5.60;99.90;;;;;;5073514;28;20029;-77
2023/03/03 06:27:49;;;;;;;239.40;77.30;;;5.60;99.90;;;;;;5074130;28;20481;-76
2023/03/03 06:30:15;;;;;;;236.93;70.45;;;5.60;99.90;;;;;;5073225;28;20099;-76
2023/03/03 06:32:41;;;;;;;215.90;66.20;;;5.70;99.90;;;;;;5072572;28;20031;-78
2023/03/03 06:35:07;;;;;;;228.55;71.55;;;5.70;99.90;;;;;;5074034;28;20032;-76
2023/03/03 06:37:33;;;;;;;239.77;65.07;;;5.60;99.90;;;;;;5073513;28;20453;-77
2023/03/03 06:39:59;;;;;;;235.93;61.70;;;5.70;99.90;;;;;;5073449;28;20028;-75
2023/03/03 06:42:24;;;;;;;223.32;59.08;;;5.70;99.90;;;;;;5074030;28;20358;-77
2023/03/03 06:44:50;;;;;;;254.07;76.05;;;5.60;99.90;;;;;;5073601;28;20028;-76
2023/03/03 06:47:16;;;;;;;295.70;95.10;;;5.70;99.90;;;;;;5072361;28;20036;-77
2023/03/03 06:49:41;;;;;;;288.00;85.50;;;5.70;99.90;;;;;;5073943;28;20509;-78
2023/03/03 06:52:19;;;;;;;276.55;89.90;;;5.70;99.90;;;;;;5073015;28;20075;-78
2023/03/03 06:54:44;;;;;;;296.80;98.38;;;5.70;99.90;;;;;;5072121;28;20028;-77
2023/03/03 06:57:24;;;;;;;465.52;198.23;;;5.70;99.90;;;;;;5073601;28;20078;-77
2023/03/03 06:59:52;;;;;;;357.88;136.55;;;5.70;99.90;;;;;;5073399;28;20032;-78
2023/03/03 07:02:19;;;;;;;234.68;76.72;;;5.80;99.90;;;;;;5073232;28;20020;-79
2023/03/03 07:04:48;;;;;;;236.68;79.97;;;5.80;99.90;;;;;;5073488;28;20024;-76
2023/03/03 07:07:19;;;;;;;337.65;115.57;;;5.80;99.90;;;;;;5072877;28;20028;-77
2023/03/03 07:09:48;;;;;;;318.48;99.15;;;5.90;99.90;;;;;;5072290;28;20029;-77
2023/03/03 07:12:29;;;;;;;220.05;64.93;;;5.90;99.90;;;;;;5072811;28;20028;-78
2023/03/03 07:15:19;;;;;;;242.30;75.97;;;5.80;99.90;;;;;;5073534;28;20099;-77
2023/03/03 07:17:48;;;;;;;243.18;76.85;;;5.80;99.90;;;;;;5073426;28;20025;-80
2023/03/03 07:20:38;;;;;;;242.18;70.88;;;5.90;99.90;;;;;;5071723;28;20021;-79
2023/03/03 07:23:23;;;;;;;215.77;57.95;;;5.90;99.90;;;;;;5073569;28;20029;-76
2023/03/03 07:25:49;;;;;;;218.65;68.10;;;5.80;99.90;;;;;;5071664;28;20074;-77
2023/03/03 07:28:33;;;;;;;219.02;67.85;;;5.80;99.90;;;;;;5075197;28;20033;-77
2023/03/03 07:30:59;;;;;;;207.43;56.60;;;5.80;99.90;;;;;;5077226;28;20028;-77
2023/03/03 07:33:40;;;;;;;167.48;47.60;;;5.80;99.90;;;;;;5077167;28;20024;-76
2023/03/03 07:36:18;;;;;;;180.75;53.78;;;5.80;99.90;;;;;;5077138;28;20029;-77
2023/03/03 07:39:04;;;;;;;194.68;63.30;;;5.80;99.90;;;;;;5076826;28;20025;-76
2023/03/03 07:41:33;;;;;;;186.95;50.60;;;5.80;99.90;;;;;;5077032;28;20056;-77
2023/03/03 07:44:20;;;;;;;181.55;57.90;;;5.80;99.90;;;;;;5076880;28;20024;-76
2023/03/03 07:46:47;;;;;;;187.60;55.80;;;5.90;99.90;;;;;;5076557;28;20024;-76
2023/03/03 07:49:23;;;;;;;175.10;48.15;;;5.90;99.90;;;;;;5076461;28;20079;-79
2023/03/03 07:51:56;;;;;;;173.05;47.42;;;5.90;99.90;;;;;;5075568;28;20028;-78
2023/03/03 07:54:42;;;;;;;202.82;63.63;;;5.90;99.90;;;;;;5076360;28;20028;-76
2023/03/03 07:57:11;;;;;;;194.30;59.30;;;6.00;99.90;;;;;;5076508;28;20043;-75
2023/03/03 07:59:45;;;;;;;175.50;57.33;;;6.00;99.90;;;;;;5075345;28;20396;-76
2023/03/03 08:02:44;;;;;;;193.75;57.65;;;6.00;99.90;;;;;;5076017;28;20051;-77
2023/03/03 08:05:28;;;;;;;207.57;65.03;;;6.00;99.90;;;;;;5032800;28;20094;-77
2023/03/03 08:08:19;;;;;;;172.10;50.75;;;6.00;99.90;;;;;;5076546;28;20036;-78
2023/03/03 08:10:51;;;;;;;162.55;47.42;;;6.00;99.90;;;;;;5065238;28;20044;-77
2023/03/03 08:13:20;;;;;;;162.63;53.28;;;6.00;99.90;;;;;;5075076;28;20043;-77
2023/03/03 08:16:00;;;;;;;166.95;51.53;;;6.10;99.90;;;;;;5076049;28;20033;-78
2023/03/03 08:18:35;;;;;;;165.18;51.50;;;6.10;99.90;;;;;;5076030;28;20027;-78
2023/03/03 08:21:23;;;;;;;168.57;52.28;;;6.10;99.90;;;;;;5076338;28;20103;-77
2023/03/03 08:23:50;;;;;;;150.95;50.83;;;6.20;99.90;;;;;;5075700;28;20027;-77
2023/03/03 08:26:18;;;;;;;213.93;71.05;;;6.10;99.90;;;;;;5075750;28;20032;-77
2023/03/03 08:28:44;;;;;;;227.40;79.07;;;6.20;99.90;;;;;;5075884;28;20369;-76
2023/03/03 08:31:11;;;;;;;218.70;76.70;;;6.20;99.90;;;;;;5075727;28;20025;-79
2023/03/03 08:33:36;;;;;;;208.35;77.82;;;6.20;99.90;;;;;;5075984;28;20027;-77
2023/03/03 08:36:02;;;;;;;225.00;94.80;;;6.20;99.90;;;;;;5075550;28;20028;-76
2023/03/03 08:38:28;;;;;;;219.25;88.97;;;6.30;99.90;;;;;;5075395;28;20361;-77
2023/03/03 08:40:53;;;;;;;195.23;75.13;;;6.20;99.90;;;;;;5075637;28;20032;-78
2023/03/03 08:43:21;;;;;;;186.48;67.65;;;6.30;99.90;;;;;;5074213;28;20028;-78
2023/03/03 08:45:52;;;;;;;213.80;81.80;;;6.30;99.90;;;;;;5075456;28;20116;-79
2023/03/03 08:48:19;;;;;;;180.43;68.27;;;6.40;99.90;;;;;;5075519;28;20036;-80
2023/03/03 08:50:45;;;;;;;191.88;69.10;;;6.30;99.90;;;;;;5075023;28;20029;-77
2023/03/03 08:53:12;;;;;;;181.15;60.53;;;6.30;99.90;;;;;;5075327;28;20407;-78
2023/03/03 08:55:39;;;;;;;181.68;64.95;;;6.30;99.90;;;;;;5075429;28;20131;-79
2023/03/03 08:58:05;;;;;;;196.43;73.03;;;6.30;99.90;;;;;;5075266;28;20024;-81
2023/03/03 09:00:30;;;;;;;201.30;68.88;;;6.30;99.90;;;;;;5073909;28;20025;-76
2023/03/03 09:02:56;;;;;;;199.63;75.05;;;6.40;99.90;;;;;;5074774;28;20028;-77
2023/03/03 09:05:23;;;;;;;195.15;71.22;;;6.40;99.90;;;;;;5075180;28;20028;-78
2023/03/03 09:07:52;;;;;;;159.07;58.85;;;6.40;99.90;;;;;;5074609;28;20070;-77
2023/03/03 09:10:26;;;;;;;173.43;61.97;;;6.40;99.90;;;;;;5075153;28;20475;-79
2023/03/03 09:12:55;;;;;;;144.82;56.80;;;6.40;99.90;;;;;;5073729;28;20119;-79
2023/03/03 09:15:28;;;;;;;202.63;80.30;;;6.40;99.90;;;;;;5073593;28;20120;-79
2023/03/03 09:17:57;;;;;;;171.30;65.70;;;6.50;99.90;;;;;;5073110;28;20457;-80
2023/03/03 09:20:38;;;;;;;145.88;58.75;;;6.50;99.90;;;;;;5073220;28;20024;-80
2023/03/03 09:23:23;;;;;;;153.68;55.95;;;6.40;99.90;;;;;;5073680;28;20387;-80
2023/03/03 09:25:50;;;;;;;170.57;60.47;;;6.40;99.90;;;;;;5073409;28;20029;-79
2023/03/03 09:28:23;;;;;;;151.65;57.17;;;6.40;99.90;;;;;;5074691;28;20020;-80
2023/03/03 09:30:50;;;;;;;163.13;63.35;;;6.50;99.90;;;;;;5074646;28;20024;-77
2023/03/03 09:33:25;;;;;;;153.65;59.47;;;6.50;99.90;;;;;;5074475;28;20025;-77
2023/03/03 09:36:30;;;;;;;142.20;53.85;;;6.50;99.90;;;;;;5072668;28;20079;-78
2023/03/03 09:38:56;;;;;;;169.27;61.67;;;6.50;99.90;;;;;;5073387;28;20062;-76
2023/03/03 09:42:01;;;;;;;144.95;54.88;;;6.50;99.90;;;;;;5074025;28;20383;-77
2023/03/03 09:44:44;;;;;;;144.80;53.65;;;6.50;99.90;;;;;;5074645;28;20029;-76
2023/03/03 09:47:10;;;;;;;189.27;68.78;;;6.50;99.90;;;;;;5074014;28;20036;-78
2023/03/03 09:49:53;;;;;;;174.75;68.82;;;6.50;99.90;;;;;;5072812;28;20027;-78
2023/03/03 09:52:38;;;;;;;160.57;62.30;;;6.60;99.90;;;;;;5074825;28;20042;-77
2023/03/03 09:55:03;;;;;;;151.50;59.00;;;6.60;99.90;;;;;;5074021;28;20373;-77
2023/03/03 09:57:54;;;;;;;160.65;62.15;;;6.70;99.90;;;;;;5073258;28;20569;-79
2023/03/03 10:00:59;;;;;;;160.85;63.58;;;6.70;99.90;;;;;;5072589;28;20045;-78
2023/03/03 10:03:47;;;;;;;160.40;64.35;;;6.80;99.90;;;;;;5074098;28;20029;-77
2023/03/03 10:06:43;;;;;;;142.32;55.67;;;6.90;99.90;;;;;;5072823;28;20105;-79
2023/03/03 10:09:36;;;;;;;129.55;47.83;;;6.80;99.90;;;;;;5072507;28;20032;-79
2023/03/03 10:12:26;;;;;;;123.30;50.53;;;6.80;99.90;;;;;;5074138;28;20020;-78
2023/03/03 10:15:07;;;;;;;124.78;46.70;;;6.80;99.90;;;;;;5072613;28;20101;-80
2023/03/03 10:17:52;;;;;;;138.13;55.35;;;6.80;99.90;;;;;;5073063;28;20028;-78
2023/03/03 10:20:46;;;;;;;144.07;55.08;;;6.80;99.90;;;;;;5074066;28;20030;-77
2023/03/03 10:23:41;;;;;;;152.82;63.13;;;6.80;99.90;;;;;;5072425;28;20059;-79
2023/03/03 10:26:15;;;;;;;154.07;56.60;;;6.90;99.90;;;;;;5074075;28;20028;-79
2023/03/03 10:28:56;;;;;;;132.15;52.50;;;6.80;99.90;;;;;;5073329;28;20039;-79
2023/03/03 10:31:30;;;;;;;128.63;47.63;;;6.90;99.90;;;;;;5072581;28;20495;-78
2023/03/03 10:34:24;;;;;;;121.95;47.08;;;6.90;99.90;;;;;;5073650;28;20121;-78
2023/03/03 10:37:19;;;;;;;139.80;53.08;;;6.80;99.90;;;;;;5073134;28;20086;-78
2023/03/03 10:40:00;;;;;;;132.35;49.60;;;6.80;99.90;;;;;;5072736;28;20028;-79
2023/03/03 10:43:11;;;;;;;141.43;51.22;;;6.80;99.90;;;;;;5073821;28;20483;-79
2023/03/03 10:45:55;;;;;;;116.82;44.47;;;6.80;99.90;;;;;;5073807;28;20029;-78
2023/03/03 10:48:33;;;;;;;146.85;52.13;;;6.80;99.90;;;;;;5072313;28;20031;-77
2023/03/03 10:50:59;;;;;;;144.18;52.95;;;6.90;99.90;;;;;;5073372;28;20029;-78
2023/03/03 10:53:30;;;;;;;155.32;57.28;;;6.80;99.90;;;;;;5073938;28;20095;-77
2023/03/03 10:56:14;;;;;;;;;;;6.80;99.90;;;;;;5074114;28;20049;-78
2023/03/03 10:59:01;;;;;;;148.90;55.08;;;6.90;99.90;;;;;;5073644;28;19958;-77
2023/03/03 11:01:45;;;;;;;135.80;52.22;;;6.90;99.90;;;;;;5074693;28;20035;-78
2023/03/03 11:04:33;;;;;;;162.68;62.17;;;6.90;99.90;;;;;;5077300;28;20025;-78
2023/03/03 11:07:21;;;;;;;164.93;63.70;;;6.90;99.90;;;;;;5077337;28;20028;-78
2023/03/03 11:10:01;;;;;;;156.68;57.63;;;6.90;99.90;;;;;;5077625;28;20024;-78
2023/03/03 11:12:38;;;;;;;162.95;61.92;;;7.00;99.90;;;;;;5077721;28;20044;-78
2023/03/03 11:15:41;;;;;;;149.07;58.47;;;7.00;99.90;;;;;;5075960;28;20028;-80
2023/03/03 11:18:32;;;;;;;;;;;7.00;99.90;;;;;;4995726;28;20117;-79
2023/03/03 11:21:27;;;;;;;249.50;99.53;;;7.00;99.90;;;;;;4995843;28;19905;-77
2023/03/03 11:24:11;;;;;;;301.17;134.18;;;7.00;99.90;;;;;;4995713;28;20023;-77
2023/03/03 11:26:55;;;;;;;282.85;121.13;;;7.00;99.90;;;;;;4995745;28;20034;-81
2023/03/03 11:29:23;;;;;;;222.40;90.50;;;7.00;99.90;;;;;;4979134;28;20493;-80
2023/03/03 11:32:09;;;;;;;195.80;86.53;;;7.10;99.90;;;;;;4978838;28;20076;-77
2023/03/03 11:34:41;;;;;;;170.18;68.53;;;7.10;99.90;;;;;;4995966;28;20065;-81
2023/03/03 11:37:11;;;;;;;181.68;75.82;;;7.10;99.90;;;;;;4979011;28;20490;-77
2023/03/03 11:39:40;;;;;;;145.88;61.75;;;7.10;99.90;;;;;;4978715;28;20398;-78
2023/03/03 11:42:20;;;;;;;172.55;69.18;;;7.10;99.90;;;;;;4995333;28;20030;-78
2023/03/03 11:44:48;;;;;;;202.98;84.85;;;7.10;99.90;;;;;;4995215;28;20033;-78
2023/03/03 11:47:23;;;;;;;176.27;70.13;;;7.10;99.90;;;;;;4978409;28;20569;-78
2023/03/03 11:50:03;;;;;;;166.73;62.72;;;7.10;99.90;;;;;;4995289;28;20026;-77
2023/03/03 11:52:43;;;;;;;175.50;70.95;;;7.10;99.90;;;;;;4997182;28;20037;-79
2023/03/03 11:55:29;;;;;;;163.73;69.20;;;7.10;99.90;;;;;;5075294;28;20098;-77
2023/03/03 11:58:07;;;;;;;161.52;62.97;;;7.10;99.90;;;;;;5075644;28;20052;-77
2023/03/03 12:00:53;;;;;;;168.45;59.10;;;7.10;99.90;;;;;;5074797;28;20028;-79
2023/03/03 12:03:30;;;;;;;165.18;59.65;;;7.10;99.90;;;;;;5076307;28;20039;-79
2023/03/03 12:06:05;;;;;;;160.77;57.67;;;7.10;99.90;;;;;;5076440;28;20029;-78
2023/03/03 12:09:08;;;;;;;152.40;59.40;;;7.00;99.90;;;;;;5076423;28;20032;-78
2023/03/03 12:11:56;;;;;;;157.18;59.72;;;7.00;99.90;;;;;;5076765;28;20452;-77
2023/03/03 12:14:49;;;;;;;160.75;64.60;;;7.10;99.90;;;;;;5074004;28;20384;-78
2023/03/03 12:17:45;;;;;;;150.60;59.15;;;7.10;99.90;;;;;;5076545;28;20377;-79
2023/03/03 12:20:30;;;;;;;151.10;54.80;;;7.10;99.90;;;;;;5075950;28;20020;-79
2023/03/03 12:23:11;;;;;;;139.13;57.63;;;7.10;99.90;;;;;;5074881;28;20086;-79
2023/03/03 12:26:15;;;;;;;154.90;66.30;;;7.10;99.90;;;;;;5076126;28;20025;-79
2023/03/03 12:29:04;;;;;;;160.50;65.60;;;7.10;99.90;;;;;;4977506;28;20073;-76
2023/03/03 12:31:39;;;;;;;160.23;63.75;;;7.10;99.90;;;;;;4978215;28;20035;-78
2023/03/03 12:34:18;;;;;;;144.15;58.80;;;7.10;99.90;;;;;;4994089;28;20056;-78
2023/03/03 12:36:58;;;;;;;171.10;67.63;;;7.10;99.90;;;;;;4994346;28;20511;-76
2023/03/03 12:40:11;;;;;;;155.43;65.32;;;7.10;99.90;;;;;;4977971;28;20038;-80
2023/03/03 12:42:54;;;;;;;151.07;61.22;;;7.10;99.90;;;;;;4994129;28;20050;-77
2023/03/03 12:45:32;;;;;;;140.40;56.15;;;7.10;99.90;;;;;;4994113;28;20395;-78
2023/03/03 12:48:14;;;;;;;139.82;57.08;;;7.10;99.90;;;;;;4994083;28;20154;-80
2023/03/03 12:50:59;;;;;;;147.85;61.28;;;7.10;99.90;;;;;;4977997;28;20061;-78
2023/03/03 12:53:43;;;;;;;152.13;62.10;;;7.00;99.90;;;;;;4994279;28;20026;-80
2023/03/03 12:56:13;;;;;;;172.38;73.18;;;7.10;99.90;;;;;;4993461;28;20065;-78
2023/03/03 12:58:54;;;;;;;170.90;73.78;;;7.00;99.90;;;;;;4977655;28;20402;-78